sensor_id;sensor_type;location;lat;lon;timestamp;P1;durP1;ratioP1;P2;durP2;ratioP2
44885;SDS011;36669;51.428;21.162;2022-10-17T00:00:37;27.00;;;17.00;;
44885;SDS011;36669;51.428;21.162;2022-10-17T00:03:05;30.63;;;17.30;;
44885;SDS011;36669;51.428;21.162;2022-10-17T00:05:32;27.48;;;17.38;;
44885;SDS011;36669;51.428;21.162;2022-10-17T00:07:59;27.48;;;17.00;;
44885;SDS011;36669;51.428;21.162;2022-10-17T00:10:25;29.67;;;17.80;;
44885;SDS011;36669;51.428;21.162;2022-10-17T00:12:52;34.15;;;18.58;;
44885;SDS011;36669;51.428;21.162;2022-10-17T00:15:18;32.80;;;18.75;;
44885;SDS011;36669;51.428;21.162;2022-10-17T00:17:46;29.02;;;18.15;;
44885;SDS011;36669;51.428;21.162;2022-10-17T00:20:13;30.90;;;18.67;;
44885;SDS011;36669;51.428;21.162;2022-10-17T00:22:42;29.25;;;18.33;;
44885;SDS011;36669;51.428;21.162;2022-10-17T00:25:09;29.77;;;19.02;;
44885;SDS011;36669;51.428;21.162;2022-10-17T00:27:36;28.42;;;18.88;;
44885;SDS011;36669;51.428;21.162;2022-10-17T00:30:05;26.55;;;18.45;;
44885;SDS011;36669;51.428;21.162;2022-10-17T00:32:35;31.30;;;18.15;;
44885;SDS011;36669;51.428;21.162;2022-10-17T00:35:02;29.60;;;18.77;;
44885;SDS011;36669;51.428;21.162;2022-10-17T00:37:30;33.72;;;19.45;;
44885;SDS011;36669;51.428;21.162;2022-10-17T00:39:57;32.00;;;19.88;;
44885;SDS011;36669;51.428;21.162;2022-10-17T00:42:24;31.20;;;19.30;;
44885;SDS011;36669;51.428;21.162;2022-10-17T00:47:51;31.48;;;19.73;;
44885;SDS011;36669;51.428;21.162;2022-10-17T00:50:24;27.48;;;19.92;;
44885;SDS011;36669;51.428;21.162;2022-10-17T00:52:50;35.25;;;21.48;;
44885;SDS011;36669;51.428;21.162;2022-10-17T00:55:24;31.83;;;20.90;;
44885;SDS011;36669;51.428;21.162;2022-10-17T00:57:53;29.02;;;20.30;;
44885;SDS011;36669;51.428;21.162;2022-10-17T01:00:20;28.77;;;18.65;;
44885;SDS011;36669;51.428;21.162;2022-10-17T01:02:49;31.27;;;19.27;;
44885;SDS011;36669;51.428;21.162;2022-10-17T01:05:16;28.13;;;19.02;;
44885;SDS011;36669;51.428;21.162;2022-10-17T01:07:45;27.35;;;18.50;;
44885;SDS011;36669;51.428;21.162;2022-10-17T01:10:14;28.30;;;18.73;;
44885;SDS011;36669;51.428;21.162;2022-10-17T01:21:55;32.35;;;19.52;;
44885;SDS011;36669;51.428;21.162;2022-10-17T01:24:35;33.28;;;20.40;;
44885;SDS011;36669;51.428;21.162;2022-10-17T01:33:36;35.42;;;21.92;;
44885;SDS011;36669;51.428;21.162;2022-10-17T01:39:49;32.70;;;21.25;;
44885;SDS011;36669;51.428;21.162;2022-10-17T01:43:12;33.05;;;20.45;;
44885;SDS011;36669;51.428;21.162;2022-10-17T01:45:39;33.88;;;21.25;;
44885;SDS011;36669;51.428;21.162;2022-10-17T01:48:22;29.52;;;20.13;;
44885;SDS011;36669;51.428;21.162;2022-10-17T01:50:53;32.63;;;20.52;;
44885;SDS011;36669;51.428;21.162;2022-10-17T01:53:27;32.67;;;21.33;;
44885;SDS011;36669;51.428;21.162;2022-10-17T01:55:59;34.38;;;21.13;;
44885;SDS011;36669;51.428;21.162;2022-10-17T01:58:38;32.15;;;20.67;;
44885;SDS011;36669;51.428;21.162;2022-10-17T02:01:18;35.13;;;21.13;;
44885;SDS011;36669;51.428;21.162;2022-10-17T02:03:45;34.75;;;21.27;;
44885;SDS011;36669;51.428;21.162;2022-10-17T02:06:15;31.25;;;19.88;;
44885;SDS011;36669;51.428;21.162;2022-10-17T02:08:45;36.67;;;19.48;;
44885;SDS011;36669;51.428;21.162;2022-10-17T02:11:13;32.85;;;20.13;;
44885;SDS011;36669;51.428;21.162;2022-10-17T02:16:34;33.30;;;19.83;;
44885;SDS011;36669;51.428;21.162;2022-10-17T02:24:59;34.13;;;19.40;;
44885;SDS011;36669;51.428;21.162;2022-10-17T02:27:52;31.75;;;20.40;;
44885;SDS011;36669;51.428;21.162;2022-10-17T02:30:41;31.35;;;20.08;;
44885;SDS011;36669;51.428;21.162;2022-10-17T02:33:15;39.22;;;20.60;;
44885;SDS011;36669;51.428;21.162;2022-10-17T02:35:49;35.88;;;21.45;;
44885;SDS011;36669;51.428;21.162;2022-10-17T02:38:17;34.10;;;21.20;;
44885;SDS011;36669;51.428;21.162;2022-10-17T02:40:45;30.40;;;21.00;;
44885;SDS011;36669;51.428;21.162;2022-10-17T02:43:14;28.25;;;20.15;;
44885;SDS011;36669;51.428;21.162;2022-10-17T02:45:39;43.13;;;21.52;;
44885;SDS011;36669;51.428;21.162;2022-10-17T02:48:11;30.77;;;20.55;;
44885;SDS011;36669;51.428;21.162;2022-10-17T02:53:56;31.77;;;20.73;;
44885;SDS011;36669;51.428;21.162;2022-10-17T02:56:32;33.05;;;20.15;;
44885;SDS011;36669;51.428;21.162;2022-10-17T02:59:03;33.60;;;20.45;;
44885;SDS011;36669;51.428;21.162;2022-10-17T03:01:32;32.25;;;20.92;;
44885;SDS011;36669;51.428;21.162;2022-10-17T03:04:05;28.95;;;20.30;;
44885;SDS011;36669;51.428;21.162;2022-10-17T03:06:33;31.48;;;20.45;;
44885;SDS011;36669;51.428;21.162;2022-10-17T03:08:58;35.92;;;21.50;;
44885;SDS011;36669;51.428;21.162;2022-10-17T03:11:25;31.92;;;20.52;;
44885;SDS011;36669;51.428;21.162;2022-10-17T03:13:52;30.27;;;20.35;;
44885;SDS011;36669;51.428;21.162;2022-10-17T03:16:18;31.58;;;21.17;;
44885;SDS011;36669;51.428;21.162;2022-10-17T03:18:44;31.27;;;21.17;;
44885;SDS011;36669;51.428;21.162;2022-10-17T03:21:11;33.42;;;21.50;;
44885;SDS011;36669;51.428;21.162;2022-10-17T03:23:38;35.40;;;21.10;;
44885;SDS011;36669;51.428;21.162;2022-10-17T03:26:05;33.58;;;21.17;;
44885;SDS011;36669;51.428;21.162;2022-10-17T03:28:32;36.22;;;22.70;;
44885;SDS011;36669;51.428;21.162;2022-10-17T03:30:59;34.70;;;21.65;;
44885;SDS011;36669;51.428;21.162;2022-10-17T03:33:35;33.42;;;21.17;;
44885;SDS011;36669;51.428;21.162;2022-10-17T03:36:07;36.08;;;22.05;;
44885;SDS011;36669;51.428;21.162;2022-10-17T03:38:34;31.25;;;20.48;;
44885;SDS011;36669;51.428;21.162;2022-10-17T03:41:02;37.13;;;21.58;;
44885;SDS011;36669;51.428;21.162;2022-10-17T03:43:29;33.55;;;21.33;;
44885;SDS011;36669;51.428;21.162;2022-10-17T03:45:56;34.75;;;21.23;;
44885;SDS011;36669;51.428;21.162;2022-10-17T03:48:24;36.00;;;21.70;;
44885;SDS011;36669;51.428;21.162;2022-10-17T03:50:52;34.92;;;22.05;;
44885;SDS011;36669;51.428;21.162;2022-10-17T03:53:27;35.05;;;21.13;;
44885;SDS011;36669;51.428;21.162;2022-10-17T03:55:54;34.97;;;22.10;;
44885;SDS011;36669;51.428;21.162;2022-10-17T03:58:22;34.05;;;22.58;;
44885;SDS011;36669;51.428;21.162;2022-10-17T04:00:48;34.03;;;21.95;;
44885;SDS011;36669;51.428;21.162;2022-10-17T04:03:15;34.53;;;22.38;;
44885;SDS011;36669;51.428;21.162;2022-10-17T04:05:42;36.63;;;21.23;;
44885;SDS011;36669;51.428;21.162;2022-10-17T04:08:09;35.88;;;21.33;;
44885;SDS011;36669;51.428;21.162;2022-10-17T04:10:36;33.05;;;21.88;;
44885;SDS011;36669;51.428;21.162;2022-10-17T04:13:03;40.30;;;22.83;;
44885;SDS011;36669;51.428;21.162;2022-10-17T04:15:30;33.72;;;22.85;;
44885;SDS011;36669;51.428;21.162;2022-10-17T04:17:57;36.38;;;22.35;;
44885;SDS011;36669;51.428;21.162;2022-10-17T04:20:23;36.42;;;23.13;;
44885;SDS011;36669;51.428;21.162;2022-10-17T04:22:50;38.85;;;22.83;;
44885;SDS011;36669;51.428;21.162;2022-10-17T04:25:18;30.63;;;20.83;;
44885;SDS011;36669;51.428;21.162;2022-10-17T04:27:46;34.75;;;21.77;;
44885;SDS011;36669;51.428;21.162;2022-10-17T04:30:12;33.10;;;21.77;;
44885;SDS011;36669;51.428;21.162;2022-10-17T04:32:40;35.05;;;22.08;;
44885;SDS011;36669;51.428;21.162;2022-10-17T04:35:05;33.97;;;22.23;;
44885;SDS011;36669;51.428;21.162;2022-10-17T04:37:32;34.13;;;21.45;;
44885;SDS011;36669;51.428;21.162;2022-10-17T04:39:58;40.38;;;21.23;;
44885;SDS011;36669;51.428;21.162;2022-10-17T04:42:25;32.85;;;20.85;;
44885;SDS011;36669;51.428;21.162;2022-10-17T04:44:53;32.33;;;20.50;;
44885;SDS011;36669;51.428;21.162;2022-10-17T04:47:19;33.97;;;21.95;;
44885;SDS011;36669;51.428;21.162;2022-10-17T04:49:47;32.90;;;20.80;;
44885;SDS011;36669;51.428;21.162;2022-10-17T04:52:14;33.75;;;21.08;;
44885;SDS011;36669;51.428;21.162;2022-10-17T04:54:41;35.38;;;20.27;;
44885;SDS011;36669;51.428;21.162;2022-10-17T04:57:07;34.50;;;20.45;;
44885;SDS011;36669;51.428;21.162;2022-10-17T04:59:34;43.08;;;20.90;;
44885;SDS011;36669;51.428;21.162;2022-10-17T05:02:01;35.45;;;22.52;;
44885;SDS011;36669;51.428;21.162;2022-10-17T05:04:28;33.22;;;20.95;;
44885;SDS011;36669;51.428;21.162;2022-10-17T05:06:54;30.88;;;21.00;;
44885;SDS011;36669;51.428;21.162;2022-10-17T05:09:21;37.35;;;21.42;;
44885;SDS011;36669;51.428;21.162;2022-10-17T05:11:48;33.30;;;21.15;;
44885;SDS011;36669;51.428;21.162;2022-10-17T05:14:15;33.72;;;21.27;;
44885;SDS011;36669;51.428;21.162;2022-10-17T05:16:41;38.42;;;20.38;;
44885;SDS011;36669;51.428;21.162;2022-10-17T05:19:09;30.95;;;20.83;;
44885;SDS011;36669;51.428;21.162;2022-10-17T05:21:35;31.60;;;21.27;;
44885;SDS011;36669;51.428;21.162;2022-10-17T05:24:03;39.58;;;20.80;;
44885;SDS011;36669;51.428;21.162;2022-10-17T05:26:31;39.50;;;21.02;;
44885;SDS011;36669;51.428;21.162;2022-10-17T05:29:00;34.88;;;21.27;;
44885;SDS011;36669;51.428;21.162;2022-10-17T05:31:26;34.28;;;21.48;;
44885;SDS011;36669;51.428;21.162;2022-10-17T05:33:52;39.03;;;22.00;;
44885;SDS011;36669;51.428;21.162;2022-10-17T05:36:19;37.15;;;21.90;;
44885;SDS011;36669;51.428;21.162;2022-10-17T05:38:49;35.85;;;21.50;;
44885;SDS011;36669;51.428;21.162;2022-10-17T05:41:17;39.20;;;22.00;;
44885;SDS011;36669;51.428;21.162;2022-10-17T05:43:45;36.83;;;20.70;;
44885;SDS011;36669;51.428;21.162;2022-10-17T05:46:12;41.28;;;23.92;;
44885;SDS011;36669;51.428;21.162;2022-10-17T05:48:39;40.60;;;23.38;;
44885;SDS011;36669;51.428;21.162;2022-10-17T05:51:08;42.42;;;22.05;;
44885;SDS011;36669;51.428;21.162;2022-10-17T05:53:39;43.85;;;22.92;;
44885;SDS011;36669;51.428;21.162;2022-10-17T05:56:08;38.53;;;24.02;;
44885;SDS011;36669;51.428;21.162;2022-10-17T05:58:38;41.65;;;25.23;;
44885;SDS011;36669;51.428;21.162;2022-10-17T06:01:06;44.20;;;25.35;;
44885;SDS011;36669;51.428;21.162;2022-10-17T06:03:33;46.75;;;25.60;;
44885;SDS011;36669;51.428;21.162;2022-10-17T06:06:07;46.15;;;25.63;;
44885;SDS011;36669;51.428;21.162;2022-10-17T06:08:34;43.45;;;25.45;;
44885;SDS011;36669;51.428;21.162;2022-10-17T06:11:01;46.65;;;26.73;;
44885;SDS011;36669;51.428;21.162;2022-10-17T06:13:29;45.63;;;24.98;;
44885;SDS011;36669;51.428;21.162;2022-10-17T06:15:56;46.80;;;27.38;;
44885;SDS011;36669;51.428;21.162;2022-10-17T06:18:23;42.50;;;25.88;;
44885;SDS011;36669;51.428;21.162;2022-10-17T06:20:50;47.42;;;25.90;;
44885;SDS011;36669;51.428;21.162;2022-10-17T06:23:17;47.33;;;27.27;;
44885;SDS011;36669;51.428;21.162;2022-10-17T06:25:44;40.70;;;25.02;;
44885;SDS011;36669;51.428;21.162;2022-10-17T06:28:10;51.55;;;27.67;;
44885;SDS011;36669;51.428;21.162;2022-10-17T06:30:38;43.15;;;24.17;;
44885;SDS011;36669;51.428;21.162;2022-10-17T06:33:05;45.20;;;25.80;;
44885;SDS011;36669;51.428;21.162;2022-10-17T06:35:32;52.28;;;27.95;;
44885;SDS011;36669;51.428;21.162;2022-10-17T06:37:59;44.28;;;25.48;;
44885;SDS011;36669;51.428;21.162;2022-10-17T06:40:26;45.90;;;25.60;;
44885;SDS011;36669;51.428;21.162;2022-10-17T06:42:53;49.65;;;25.73;;
44885;SDS011;36669;51.428;21.162;2022-10-17T06:45:20;40.40;;;24.02;;
44885;SDS011;36669;51.428;21.162;2022-10-17T06:47:46;50.38;;;24.13;;
44885;SDS011;36669;51.428;21.162;2022-10-17T06:50:13;44.40;;;24.08;;
44885;SDS011;36669;51.428;21.162;2022-10-17T06:52:40;35.13;;;22.67;;
44885;SDS011;36669;51.428;21.162;2022-10-17T06:55:07;37.55;;;23.13;;
44885;SDS011;36669;51.428;21.162;2022-10-17T06:57:34;42.20;;;24.20;;
44885;SDS011;36669;51.428;21.162;2022-10-17T06:59:59;38.03;;;23.33;;
44885;SDS011;36669;51.428;21.162;2022-10-17T07:02:27;36.20;;;23.25;;
44885;SDS011;36669;51.428;21.162;2022-10-17T07:04:52;35.33;;;22.38;;
44885;SDS011;36669;51.428;21.162;2022-10-17T07:07:18;34.40;;;21.27;;
44885;SDS011;36669;51.428;21.162;2022-10-17T07:09:44;36.08;;;20.75;;
44885;SDS011;36669;51.428;21.162;2022-10-17T07:12:11;32.58;;;20.75;;
44885;SDS011;36669;51.428;21.162;2022-10-17T07:14:39;37.08;;;20.63;;
44885;SDS011;36669;51.428;21.162;2022-10-17T07:17:06;34.35;;;20.33;;
44885;SDS011;36669;51.428;21.162;2022-10-17T07:19:33;29.60;;;20.02;;
44885;SDS011;36669;51.428;21.162;2022-10-17T07:22:01;35.15;;;20.15;;
44885;SDS011;36669;51.428;21.162;2022-10-17T07:24:29;29.85;;;19.30;;
44885;SDS011;36669;51.428;21.162;2022-10-17T07:26:55;27.15;;;19.02;;
44885;SDS011;36669;51.428;21.162;2022-10-17T07:29:22;31.25;;;20.23;;
44885;SDS011;36669;51.428;21.162;2022-10-17T07:31:49;31.45;;;18.92;;
44885;SDS011;36669;51.428;21.162;2022-10-17T07:34:16;30.08;;;18.40;;
44885;SDS011;36669;51.428;21.162;2022-10-17T07:36:43;28.83;;;18.40;;
44885;SDS011;36669;51.428;21.162;2022-10-17T07:39:10;33.78;;;18.42;;
44885;SDS011;36669;51.428;21.162;2022-10-17T07:41:37;35.08;;;19.52;;
44885;SDS011;36669;51.428;21.162;2022-10-17T07:44:04;32.22;;;18.83;;
44885;SDS011;36669;51.428;21.162;2022-10-17T07:46:31;32.13;;;18.48;;
44885;SDS011;36669;51.428;21.162;2022-10-17T07:48:56;40.40;;;18.88;;
44885;SDS011;36669;51.428;21.162;2022-10-17T07:51:23;30.50;;;18.55;;
44885;SDS011;36669;51.428;21.162;2022-10-17T07:53:51;27.75;;;17.98;;
44885;SDS011;36669;51.428;21.162;2022-10-17T07:56:18;25.25;;;17.15;;
44885;SDS011;36669;51.428;21.162;2022-10-17T07:58:43;27.10;;;17.70;;
44885;SDS011;36669;51.428;21.162;2022-10-17T08:01:10;26.45;;;17.17;;
44885;SDS011;36669;51.428;21.162;2022-10-17T08:03:38;28.58;;;16.98;;
44885;SDS011;36669;51.428;21.162;2022-10-17T08:06:14;27.30;;;17.27;;
44885;SDS011;36669;51.428;21.162;2022-10-17T08:08:41;25.98;;;16.42;;
44885;SDS011;36669;51.428;21.162;2022-10-17T08:11:09;33.15;;;18.10;;
44885;SDS011;36669;51.428;21.162;2022-10-17T08:13:36;26.80;;;16.80;;
44885;SDS011;36669;51.428;21.162;2022-10-17T08:16:05;25.92;;;15.98;;
44885;SDS011;36669;51.428;21.162;2022-10-17T08:18:35;26.10;;;15.77;;
44885;SDS011;36669;51.428;21.162;2022-10-17T08:21:02;31.42;;;15.20;;
44885;SDS011;36669;51.428;21.162;2022-10-17T08:23:30;29.60;;;15.93;;
44885;SDS011;36669;51.428;21.162;2022-10-17T08:25:59;27.40;;;16.15;;
44885;SDS011;36669;51.428;21.162;2022-10-17T08:28:27;29.33;;;16.10;;
44885;SDS011;36669;51.428;21.162;2022-10-17T08:31:04;24.52;;;16.08;;
44885;SDS011;36669;51.428;21.162;2022-10-17T08:33:34;26.35;;;15.40;;
44885;SDS011;36669;51.428;21.162;2022-10-17T08:36:01;23.52;;;15.65;;
44885;SDS011;36669;51.428;21.162;2022-10-17T08:38:29;26.75;;;16.20;;
44885;SDS011;36669;51.428;21.162;2022-10-17T08:40:56;26.80;;;15.68;;
44885;SDS011;36669;51.428;21.162;2022-10-17T08:43:31;23.50;;;14.13;;
44885;SDS011;36669;51.428;21.162;2022-10-17T08:46:27;25.00;;;14.70;;
44885;SDS011;36669;51.428;21.162;2022-10-17T08:49:02;25.33;;;14.27;;
44885;SDS011;36669;51.428;21.162;2022-10-17T08:51:32;26.67;;;16.30;;
44885;SDS011;36669;51.428;21.162;2022-10-17T08:57:10;26.42;;;14.65;;
44885;SDS011;36669;51.428;21.162;2022-10-17T08:59:37;21.40;;;13.30;;
44885;SDS011;36669;51.428;21.162;2022-10-17T09:09:09;27.73;;;14.57;;
44885;SDS011;36669;51.428;21.162;2022-10-17T09:11:30;18.33;;;13.82;;
44885;SDS011;36669;51.428;21.162;2022-10-17T09:14:37;25.88;;;14.65;;
44885;SDS011;36669;51.428;21.162;2022-10-17T09:17:37;21.67;;;13.45;;
44885;SDS011;36669;51.428;21.162;2022-10-17T09:20:23;25.02;;;14.45;;
44885;SDS011;36669;51.428;21.162;2022-10-17T09:23:11;25.80;;;15.52;;
44885;SDS011;36669;51.428;21.162;2022-10-17T09:25:49;26.58;;;14.50;;
44885;SDS011;36669;51.428;21.162;2022-10-17T09:28:51;26.52;;;14.20;;
44885;SDS011;36669;51.428;21.162;2022-10-17T09:31:22;22.42;;;14.32;;
44885;SDS011;36669;51.428;21.162;2022-10-17T09:33:53;20.48;;;14.77;;
44885;SDS011;36669;51.428;21.162;2022-10-17T09:36:28;27.50;;;14.45;;
44885;SDS011;36669;51.428;21.162;2022-10-17T09:38:59;21.50;;;13.45;;
44885;SDS011;36669;51.428;21.162;2022-10-17T09:41:40;22.55;;;14.82;;
44885;SDS011;36669;51.428;21.162;2022-10-17T09:49:51;21.95;;;13.63;;
44885;SDS011;36669;51.428;21.162;2022-10-17T09:52:32;27.48;;;15.02;;
44885;SDS011;36669;51.428;21.162;2022-10-17T09:55:30;25.67;;;13.73;;
44885;SDS011;36669;51.428;21.162;2022-10-17T09:58:02;26.35;;;13.50;;
44885;SDS011;36669;51.428;21.162;2022-10-17T10:00:32;20.50;;;13.40;;
44885;SDS011;36669;51.428;21.162;2022-10-17T10:03:19;19.73;;;12.70;;
44885;SDS011;36669;51.428;21.162;2022-10-17T10:06:03;19.50;;;11.45;;
44885;SDS011;36669;51.428;21.162;2022-10-17T10:11:11;16.00;;;10.60;;
44885;SDS011;36669;51.428;21.162;2022-10-17T10:13:37;16.48;;;10.52;;
44885;SDS011;36669;51.428;21.162;2022-10-17T10:16:23;18.40;;;10.32;;
44885;SDS011;36669;51.428;21.162;2022-10-17T10:18:56;16.27;;;10.98;;
44885;SDS011;36669;51.428;21.162;2022-10-17T10:21:23;17.70;;;10.45;;
44885;SDS011;36669;51.428;21.162;2022-10-17T10:26:43;14.32;;;9.93;;
44885;SDS011;36669;51.428;21.162;2022-10-17T10:32:08;13.23;;;9.88;;
44885;SDS011;36669;51.428;21.162;2022-10-17T10:34:47;14.70;;;10.52;;
44885;SDS011;36669;51.428;21.162;2022-10-17T10:37:28;14.23;;;10.25;;
44885;SDS011;36669;51.428;21.162;2022-10-17T10:40:20;16.17;;;10.27;;
44885;SDS011;36669;51.428;21.162;2022-10-17T10:43:04;13.60;;;9.52;;
44885;SDS011;36669;51.428;21.162;2022-10-17T10:45:40;14.10;;;10.40;;
44885;SDS011;36669;51.428;21.162;2022-10-17T10:48:18;15.15;;;9.93;;
44885;SDS011;36669;51.428;21.162;2022-10-17T10:53:56;16.03;;;10.10;;
44885;SDS011;36669;51.428;21.162;2022-10-17T10:59:23;18.05;;;10.70;;
44885;SDS011;36669;51.428;21.162;2022-10-17T11:05:03;14.10;;;9.73;;
44885;SDS011;36669;51.428;21.162;2022-10-17T11:07:57;15.82;;;9.85;;
44885;SDS011;36669;51.428;21.162;2022-10-17T11:11:03;14.13;;;10.02;;
44885;SDS011;36669;51.428;21.162;2022-10-17T11:13:26;17.05;;;9.65;;
44885;SDS011;36669;51.428;21.162;2022-10-17T11:21:50;15.85;;;9.45;;
44885;SDS011;36669;51.428;21.162;2022-10-17T11:24:23;15.50;;;10.20;;
44885;SDS011;36669;51.428;21.162;2022-10-17T11:26:58;14.95;;;10.02;;
44885;SDS011;36669;51.428;21.162;2022-10-17T11:29:33;16.60;;;9.13;;
44885;SDS011;36669;51.428;21.162;2022-10-17T11:32:23;16.88;;;9.63;;
44885;SDS011;36669;51.428;21.162;2022-10-17T11:35:05;11.25;;;9.10;;
44885;SDS011;36669;51.428;21.162;2022-10-17T11:37:55;12.35;;;9.23;;
44885;SDS011;36669;51.428;21.162;2022-10-17T11:40:32;14.55;;;9.00;;
44885;SDS011;36669;51.428;21.162;2022-10-17T11:43:03;13.68;;;9.20;;
44885;SDS011;36669;51.428;21.162;2022-10-17T11:45:38;13.25;;;9.25;;
44885;SDS011;36669;51.428;21.162;2022-10-17T11:48:11;13.63;;;8.70;;
44885;SDS011;36669;51.428;21.162;2022-10-17T11:51:05;16.42;;;9.13;;
44885;SDS011;36669;51.428;21.162;2022-10-17T11:53:55;12.63;;;8.23;;
44885;SDS011;36669;51.428;21.162;2022-10-17T11:59:43;14.88;;;8.13;;
44885;SDS011;36669;51.428;21.162;2022-10-17T12:03:06;12.65;;;7.93;;
44885;SDS011;36669;51.428;21.162;2022-10-17T12:05:57;10.10;;;8.15;;
44885;SDS011;36669;51.428;21.162;2022-10-17T12:09:05;14.00;;;8.85;;
44885;SDS011;36669;51.428;21.162;2022-10-17T12:11:56;13.48;;;7.82;;
44885;SDS011;36669;51.428;21.162;2022-10-17T12:17:31;12.02;;;8.18;;
44885;SDS011;36669;51.428;21.162;2022-10-17T12:25:50;12.68;;;7.97;;
44885;SDS011;36669;51.428;21.162;2022-10-17T12:28:43;11.60;;;7.60;;
44885;SDS011;36669;51.428;21.162;2022-10-17T12:31:24;10.65;;;7.75;;
44885;SDS011;36669;51.428;21.162;2022-10-17T12:33:54;12.02;;;7.32;;
44885;SDS011;36669;51.428;21.162;2022-10-17T12:55:12;10.05;;;7.15;;
44885;SDS011;36669;51.428;21.162;2022-10-17T12:58:05;13.85;;;7.35;;
44885;SDS011;36669;51.428;21.162;2022-10-17T13:00:45;10.70;;;6.63;;
44885;SDS011;36669;51.428;21.162;2022-10-17T13:03:14;8.20;;;6.75;;
44885;SDS011;36669;51.428;21.162;2022-10-17T13:05:46;10.27;;;7.00;;
44885;SDS011;36669;51.428;21.162;2022-10-17T13:08:24;10.73;;;6.95;;
44885;SDS011;36669;51.428;21.162;2022-10-17T13:11:01;9.27;;;6.60;;
44885;SDS011;36669;51.428;21.162;2022-10-17T13:15:53;8.52;;;6.35;;
44885;SDS011;36669;51.428;21.162;2022-10-17T13:18:23;12.80;;;7.18;;
44885;SDS011;36669;51.428;21.162;2022-10-17T13:20:57;12.15;;;6.68;;
44885;SDS011;36669;51.428;21.162;2022-10-17T13:23:28;10.77;;;6.75;;
44885;SDS011;36669;51.428;21.162;2022-10-17T13:26:11;10.32;;;6.40;;
44885;SDS011;36669;51.428;21.162;2022-10-17T13:28:40;9.02;;;6.20;;
44885;SDS011;36669;51.428;21.162;2022-10-17T13:31:06;9.23;;;6.60;;
44885;SDS011;36669;51.428;21.162;2022-10-17T13:34:05;8.57;;;6.03;;
44885;SDS011;36669;51.428;21.162;2022-10-17T13:36:43;12.25;;;6.30;;
44885;SDS011;36669;51.428;21.162;2022-10-17T13:39:12;9.38;;;6.03;;
44885;SDS011;36669;51.428;21.162;2022-10-17T13:41:41;10.95;;;6.57;;
44885;SDS011;36669;51.428;21.162;2022-10-17T13:44:17;12.73;;;6.55;;
44885;SDS011;36669;51.428;21.162;2022-10-17T13:46:45;7.05;;;5.82;;
44885;SDS011;36669;51.428;21.162;2022-10-17T13:49:19;9.32;;;6.00;;
44885;SDS011;36669;51.428;21.162;2022-10-17T13:52:05;12.30;;;6.80;;
44885;SDS011;36669;51.428;21.162;2022-10-17T13:54:51;9.60;;;6.18;;
44885;SDS011;36669;51.428;21.162;2022-10-17T13:57:25;8.40;;;6.30;;
44885;SDS011;36669;51.428;21.162;2022-10-17T14:00:03;10.35;;;6.45;;
44885;SDS011;36669;51.428;21.162;2022-10-17T14:02:49;9.55;;;6.32;;
44885;SDS011;36669;51.428;21.162;2022-10-17T14:05:16;9.18;;;6.30;;
44885;SDS011;36669;51.428;21.162;2022-10-17T14:10:24;12.70;;;6.65;;
44885;SDS011;36669;51.428;21.162;2022-10-17T14:12:59;9.02;;;6.30;;
44885;SDS011;36669;51.428;21.162;2022-10-17T14:15:28;10.55;;;7.20;;
44885;SDS011;36669;51.428;21.162;2022-10-17T14:17:58;9.52;;;6.85;;
44885;SDS011;36669;51.428;21.162;2022-10-17T14:20:27;9.52;;;6.68;;
44885;SDS011;36669;51.428;21.162;2022-10-17T14:22:55;12.05;;;7.13;;
44885;SDS011;36669;51.428;21.162;2022-10-17T14:25:38;10.52;;;6.65;;
44885;SDS011;36669;51.428;21.162;2022-10-17T14:28:14;11.65;;;6.90;;
44885;SDS011;36669;51.428;21.162;2022-10-17T14:30:47;10.18;;;6.60;;
44885;SDS011;36669;51.428;21.162;2022-10-17T14:33:34;11.60;;;6.75;;
44885;SDS011;36669;51.428;21.162;2022-10-17T14:36:00;13.70;;;6.95;;
44885;SDS011;36669;51.428;21.162;2022-10-17T14:38:28;13.57;;;7.25;;
44885;SDS011;36669;51.428;21.162;2022-10-17T14:40:55;10.90;;;6.95;;
44885;SDS011;36669;51.428;21.162;2022-10-17T14:43:41;10.95;;;7.38;;
44885;SDS011;36669;51.428;21.162;2022-10-17T14:46:12;10.85;;;6.63;;
44885;SDS011;36669;51.428;21.162;2022-10-17T14:51:14;11.38;;;6.97;;
44885;SDS011;36669;51.428;21.162;2022-10-17T14:53:43;9.88;;;7.05;;
44885;SDS011;36669;51.428;21.162;2022-10-17T14:56:26;12.35;;;7.07;;
44885;SDS011;36669;51.428;21.162;2022-10-17T14:58:59;11.15;;;7.60;;
44885;SDS011;36669;51.428;21.162;2022-10-17T15:01:24;11.10;;;6.97;;
44885;SDS011;36669;51.428;21.162;2022-10-17T15:03:51;14.80;;;7.72;;
44885;SDS011;36669;51.428;21.162;2022-10-17T15:06:21;11.23;;;8.13;;
44885;SDS011;36669;51.428;21.162;2022-10-17T15:08:53;15.15;;;7.82;;
44885;SDS011;36669;51.428;21.162;2022-10-17T15:11:20;13.60;;;8.02;;
44885;SDS011;36669;51.428;21.162;2022-10-17T15:13:48;16.60;;;8.07;;
44885;SDS011;36669;51.428;21.162;2022-10-17T15:16:22;16.63;;;8.15;;
44885;SDS011;36669;51.428;21.162;2022-10-17T15:18:51;13.88;;;8.68;;
44885;SDS011;36669;51.428;21.162;2022-10-17T15:21:19;15.00;;;8.82;;
44885;SDS011;36669;51.428;21.162;2022-10-17T15:23:47;16.48;;;8.77;;
44885;SDS011;36669;51.428;21.162;2022-10-17T15:26:17;14.88;;;8.60;;
44885;SDS011;36669;51.428;21.162;2022-10-17T15:28:52;18.63;;;9.50;;
44885;SDS011;36669;51.428;21.162;2022-10-17T15:31:19;18.35;;;10.35;;
44885;SDS011;36669;51.428;21.162;2022-10-17T15:33:47;15.57;;;9.23;;
44885;SDS011;36669;51.428;21.162;2022-10-17T15:36:26;19.58;;;9.82;;
44885;SDS011;36669;51.428;21.162;2022-10-17T15:38:54;14.68;;;9.40;;
44885;SDS011;36669;51.428;21.162;2022-10-17T15:41:24;16.92;;;9.30;;
44885;SDS011;36669;51.428;21.162;2022-10-17T15:43:50;14.02;;;9.13;;
44885;SDS011;36669;51.428;21.162;2022-10-17T15:46:26;15.57;;;9.02;;
44885;SDS011;36669;51.428;21.162;2022-10-17T15:48:54;16.33;;;8.93;;
44885;SDS011;36669;51.428;21.162;2022-10-17T15:51:25;18.90;;;9.52;;
44885;SDS011;36669;51.428;21.162;2022-10-17T15:53:50;14.45;;;9.38;;
44885;SDS011;36669;51.428;21.162;2022-10-17T15:56:20;14.93;;;9.50;;
44885;SDS011;36669;51.428;21.162;2022-10-17T15:58:49;21.65;;;10.05;;
44885;SDS011;36669;51.428;21.162;2022-10-17T16:01:19;19.10;;;10.52;;
44885;SDS011;36669;51.428;21.162;2022-10-17T16:03:47;19.42;;;10.60;;
44885;SDS011;36669;51.428;21.162;2022-10-17T16:06:13;16.90;;;9.95;;
44885;SDS011;36669;51.428;21.162;2022-10-17T16:08:38;21.50;;;11.50;;
44885;SDS011;36669;51.428;21.162;2022-10-17T16:11:04;17.90;;;10.85;;
44885;SDS011;36669;51.428;21.162;2022-10-17T16:13:30;21.58;;;10.25;;
44885;SDS011;36669;51.428;21.162;2022-10-17T16:15:56;25.77;;;11.80;;
44885;SDS011;36669;51.428;21.162;2022-10-17T16:18:21;20.98;;;11.48;;
44885;SDS011;36669;51.428;21.162;2022-10-17T16:20:47;22.42;;;11.93;;
44885;SDS011;36669;51.428;21.162;2022-10-17T16:23:12;22.42;;;11.82;;
44885;SDS011;36669;51.428;21.162;2022-10-17T16:25:39;27.15;;;12.85;;
44885;SDS011;36669;51.428;21.162;2022-10-17T16:28:05;23.10;;;12.20;;
44885;SDS011;36669;51.428;21.162;2022-10-17T16:30:31;25.90;;;13.52;;